sensor_id;sensor_type;location;lat;lon;timestamp;P1;durP1;ratioP1;P2;durP2;ratioP2
17949;SDS011;9100;48.700;9.316;2023-02-11T00:00:15;24.4;;;16.3;;
17949;SDS011;9100;48.700;9.316;2023-02-11T00:00:37;25.8;;;16.4;;
17949;SDS011;9100;48.700;9.316;2023-02-11T00:01:15;25.8;;;16.4;;
17949;SDS011;9100;48.700;9.316;2023-02-11T00:02:17;25.8;;;16.4;;
17949;SDS011;9100;48.700;9.316;2023-02-11T00:03:13;25.8;;;16.4;;
17949;SDS011;9100;48.700;9.316;2023-02-11T00:04:14;25.8;;;16.4;;
17949;SDS011;9100;48.700;9.316;2023-02-11T00:05:14;25.8;;;16.4;;
17949;SDS011;9100;48.700;9.316;2023-02-11T00:05:35;26.4;;;17.7;;
17949;SDS011;9100;48.700;9.316;2023-02-11T00:06:15;26.4;;;17.7;;
17949;SDS011;9100;48.700;9.316;2023-02-11T00:07:13;26.4;;;17.7;;
17949;SDS011;9100;48.700;9.316;2023-02-11T00:08:13;26.4;;;17.7;;
17949;SDS011;9100;48.700;9.316;2023-02-11T00:09:14;26.4;;;17.7;;
17949;SDS011;9100;48.700;9.316;2023-02-11T00:10:13;26.4;;;17.7;;
17949;SDS011;9100;48.700;9.316;2023-02-11T00:10:36;28.2;;;16.7;;
17949;SDS011;9100;48.700;9.316;2023-02-11T00:11:14;28.2;;;16.7;;
17949;SDS011;9100;48.700;9.316;2023-02-11T00:12:14;28.2;;;16.7;;
17949;SDS011;9100;48.700;9.316;2023-02-11T00:13:14;28.2;;;16.7;;
17949;SDS011;9100;48.700;9.316;2023-02-11T00:14:13;28.2;;;16.7;;
17949;SDS011;9100;48.700;9.316;2023-02-11T00:15:13;28.2;;;16.7;;
17949;SDS011;9100;48.700;9.316;2023-02-11T00:15:35;30.2;;;17.9;;
17949;SDS011;9100;48.700;9.316;2023-02-11T00:16:14;30.2;;;17.9;;
17949;SDS011;9100;48.700;9.316;2023-02-11T00:17:13;30.2;;;17.9;;
17949;SDS011;9100;48.700;9.316;2023-02-11T00:18:13;30.2;;;17.9;;
17949;SDS011;9100;48.700;9.316;2023-02-11T00:19:13;30.2;;;17.9;;
17949;SDS011;9100;48.700;9.316;2023-02-11T00:20:13;30.2;;;17.9;;
17949;SDS011;9100;48.700;9.316;2023-02-11T00:20:37;23.3;;;16.3;;
17949;SDS011;9100;48.700;9.316;2023-02-11T00:21:14;23.3;;;16.3;;
17949;SDS011;9100;48.700;9.316;2023-02-11T00:22:13;23.3;;;16.3;;
17949;SDS011;9100;48.700;9.316;2023-02-11T00:23:15;23.3;;;16.3;;
17949;SDS011;9100;48.700;9.316;2023-02-11T00:24:13;23.3;;;16.3;;
17949;SDS011;9100;48.700;9.316;2023-02-11T00:25:13;23.3;;;16.3;;
17949;SDS011;9100;48.700;9.316;2023-02-11T00:25:37;24.7;;;16;;
17949;SDS011;9100;48.700;9.316;2023-02-11T00:26:14;24.7;;;16;;
17949;SDS011;9100;48.700;9.316;2023-02-11T00:27:14;24.7;;;16;;
17949;SDS011;9100;48.700;9.316;2023-02-11T00:28:14;24.7;;;16;;
17949;SDS011;9100;48.700;9.316;2023-02-11T00:29:14;24.7;;;16;;
17949;SDS011;9100;48.700;9.316;2023-02-11T00:30:14;24.7;;;16;;
17949;SDS011;9100;48.700;9.316;2023-02-11T00:30:35;30;;;16.1;;
17949;SDS011;9100;48.700;9.316;2023-02-11T00:31:14;30;;;16.1;;
17949;SDS011;9100;48.700;9.316;2023-02-11T00:32:15;30;;;16.1;;
17949;SDS011;9100;48.700;9.316;2023-02-11T00:33:13;30;;;16.1;;
17949;SDS011;9100;48.700;9.316;2023-02-11T00:34:13;30;;;16.1;;
17949;SDS011;9100;48.700;9.316;2023-02-11T00:35:14;30;;;16.1;;
17949;SDS011;9100;48.700;9.316;2023-02-11T00:35:35;21;;;12.7;;
17949;SDS011;9100;48.700;9.316;2023-02-11T00:36:15;21;;;12.7;;
17949;SDS011;9100;48.700;9.316;2023-02-11T00:37:15;21;;;12.7;;
17949;SDS011;9100;48.700;9.316;2023-02-11T00:38:14;21;;;12.7;;
17949;SDS011;9100;48.700;9.316;2023-02-11T00:39:13;21;;;12.7;;
17949;SDS011;9100;48.700;9.316;2023-02-11T00:40:14;21;;;12.7;;
17949;SDS011;9100;48.700;9.316;2023-02-11T00:40:35;23.8;;;14.2;;
17949;SDS011;9100;48.700;9.316;2023-02-11T00:41:14;23.8;;;14.2;;
17949;SDS011;9100;48.700;9.316;2023-02-11T00:42:14;23.8;;;14.2;;
17949;SDS011;9100;48.700;9.316;2023-02-11T00:43:14;23.8;;;14.2;;
17949;SDS011;9100;48.700;9.316;2023-02-11T00:44:13;23.8;;;14.2;;
17949;SDS011;9100;48.700;9.316;2023-02-11T00:45:13;23.8;;;14.2;;
17949;SDS011;9100;48.700;9.316;2023-02-11T00:45:35;19.1;;;13.9;;
17949;SDS011;9100;48.700;9.316;2023-02-11T00:46:13;19.1;;;13.9;;
17949;SDS011;9100;48.700;9.316;2023-02-11T00:47:13;19.1;;;13.9;;
17949;SDS011;9100;48.700;9.316;2023-02-11T00:48:13;19.1;;;13.9;;
17949;SDS011;9100;48.700;9.316;2023-02-11T00:49:13;19.1;;;13.9;;
17949;SDS011;9100;48.700;9.316;2023-02-11T00:50:13;19.1;;;13.9;;
17949;SDS011;9100;48.700;9.316;2023-02-11T00:50:35;28.7;;;16.5;;
17949;SDS011;9100;48.700;9.316;2023-02-11T00:51:13;28.7;;;16.5;;
17949;SDS011;9100;48.700;9.316;2023-02-11T00:52:13;28.7;;;16.5;;
17949;SDS011;9100;48.700;9.316;2023-02-11T00:53:13;28.7;;;16.5;;
17949;SDS011;9100;48.700;9.316;2023-02-11T00:54:13;28.7;;;16.5;;
17949;SDS011;9100;48.700;9.316;2023-02-11T00:55:13;28.7;;;16.5;;
17949;SDS011;9100;48.700;9.316;2023-02-11T00:55:35;25.8;;;16;;
17949;SDS011;9100;48.700;9.316;2023-02-11T00:56:13;25.8;;;16;;
17949;SDS011;9100;48.700;9.316;2023-02-11T00:57:13;25.8;;;16;;
17949;SDS011;9100;48.700;9.316;2023-02-11T00:58:13;25.8;;;16;;
17949;SDS011;9100;48.700;9.316;2023-02-11T00:59:13;25.8;;;16;;
17949;SDS011;9100;48.700;9.316;2023-02-11T01:00:14;25.8;;;16;;
17949;SDS011;9100;48.700;9.316;2023-02-11T01:00:35;10.5;;;6.9;;
17949;SDS011;9100;48.700;9.316;2023-02-11T01:01:13;10.5;;;6.9;;
17949;SDS011;9100;48.700;9.316;2023-02-11T01:02:14;10.5;;;6.9;;
17949;SDS011;9100;48.700;9.316;2023-02-11T01:03:13;10.5;;;6.9;;
17949;SDS011;9100;48.700;9.316;2023-02-11T01:04:13;10.5;;;6.9;;
17949;SDS011;9100;48.700;9.316;2023-02-11T01:05:14;10.5;;;6.9;;
17949;SDS011;9100;48.700;9.316;2023-02-11T01:05:36;18.9;;;13.8;;
17949;SDS011;9100;48.700;9.316;2023-02-11T01:06:13;18.9;;;13.8;;
17949;SDS011;9100;48.700;9.316;2023-02-11T01:07:13;18.9;;;13.8;;
17949;SDS011;9100;48.700;9.316;2023-02-11T01:08:14;18.9;;;13.8;;
17949;SDS011;9100;48.700;9.316;2023-02-11T01:09:15;18.9;;;13.8;;
17949;SDS011;9100;48.700;9.316;2023-02-11T01:10:14;18.9;;;13.8;;
17949;SDS011;9100;48.700;9.316;2023-02-11T01:10:35;17.2;;;10.9;;
17949;SDS011;9100;48.700;9.316;2023-02-11T01:11:15;17.2;;;10.9;;
17949;SDS011;9100;48.700;9.316;2023-02-11T01:12:13;17.2;;;10.9;;
17949;SDS011;9100;48.700;9.316;2023-02-11T01:13:13;17.2;;;10.9;;
17949;SDS011;9100;48.700;9.316;2023-02-11T01:14:13;17.2;;;10.9;;
17949;SDS011;9100;48.700;9.316;2023-02-11T01:15:15;17.2;;;10.9;;
17949;SDS011;9100;48.700;9.316;2023-02-11T01:15:35;20.8;;;15.3;;
17949;SDS011;9100;48.700;9.316;2023-02-11T01:16:13;20.8;;;15.3;;
17949;SDS011;9100;48.700;9.316;2023-02-11T01:17:15;20.8;;;15.3;;
17949;SDS011;9100;48.700;9.316;2023-02-11T01:18:13;20.8;;;15.3;;
17949;SDS011;9100;48.700;9.316;2023-02-11T01:19:13;20.8;;;15.3;;
17949;SDS011;9100;48.700;9.316;2023-02-11T01:20:14;20.8;;;15.3;;
17949;SDS011;9100;48.700;9.316;2023-02-11T01:20:35;17.2;;;11.7;;
17949;SDS011;9100;48.700;9.316;2023-02-11T01:21:13;17.2;;;11.7;;
17949;SDS011;9100;48.700;9.316;2023-02-11T01:22:14;17.2;;;11.7;;
17949;SDS011;9100;48.700;9.316;2023-02-11T01:23:13;17.2;;;11.7;;
17949;SDS011;9100;48.700;9.316;2023-02-11T01:24:13;17.2;;;11.7;;
17949;SDS011;9100;48.700;9.316;2023-02-11T01:25:14;17.2;;;11.7;;
17949;SDS011;9100;48.700;9.316;2023-02-11T01:25:35;23.9;;;15.2;;
17949;SDS011;9100;48.700;9.316;2023-02-11T01:26:14;23.9;;;15.2;;
17949;SDS011;9100;48.700;9.316;2023-02-11T01:27:13;23.9;;;15.2;;
17949;SDS011;9100;48.700;9.316;2023-02-11T01:28:15;23.9;;;15.2;;
17949;SDS011;9100;48.700;9.316;2023-02-11T01:29:13;23.9;;;15.2;;
17949;SDS011;9100;48.700;9.316;2023-02-11T01:30:13;23.9;;;15.2;;
17949;SDS011;9100;48.700;9.316;2023-02-11T01:30:35;22.8;;;15.5;;
17949;SDS011;9100;48.700;9.316;2023-02-11T01:31:15;22.8;;;15.5;;
17949;SDS011;9100;48.700;9.316;2023-02-11T01:32:14;22.8;;;15.5;;
17949;SDS011;9100;48.700;9.316;2023-02-11T01:33:14;22.8;;;15.5;;
17949;SDS011;9100;48.700;9.316;2023-02-11T01:34:13;22.8;;;15.5;;
17949;SDS011;9100;48.700;9.316;2023-02-11T01:35:13;22.8;;;15.5;;
17949;SDS011;9100;48.700;9.316;2023-02-11T01:35:36;22.3;;;15.3;;
17949;SDS011;9100;48.700;9.316;2023-02-11T01:36:13;22.3;;;15.3;;
17949;SDS011;9100;48.700;9.316;2023-02-11T01:37:13;22.3;;;15.3;;
17949;SDS011;9100;48.700;9.316;2023-02-11T01:38:15;22.3;;;15.3;;
17949;SDS011;9100;48.700;9.316;2023-02-11T01:39:13;22.3;;;15.3;;
17949;SDS011;9100;48.700;9.316;2023-02-11T01:40:14;22.3;;;15.3;;
17949;SDS011;9100;48.700;9.316;2023-02-11T01:40:35;28;;;15.5;;
17949;SDS011;9100;48.700;9.316;2023-02-11T01:41:13;28;;;15.5;;
17949;SDS011;9100;48.700;9.316;2023-02-11T01:42:14;28;;;15.5;;
17949;SDS011;9100;48.700;9.316;2023-02-11T01:43:13;28;;;15.5;;
17949;SDS011;9100;48.700;9.316;2023-02-11T01:44:21;28;;;15.5;;
17949;SDS011;9100;48.700;9.316;2023-02-11T01:45:49;24.5;;;16.8;;
17949;SDS011;9100;48.700;9.316;2023-02-11T01:46:17;24.5;;;16.8;;
17949;SDS011;9100;48.700;9.316;2023-02-11T01:47:13;24.5;;;16.8;;
17949;SDS011;9100;48.700;9.316;2023-02-11T01:48:14;24.5;;;16.8;;
17949;SDS011;9100;48.700;9.316;2023-02-11T01:49:14;24.5;;;16.8;;
17949;SDS011;9100;48.700;9.316;2023-02-11T01:50:14;24.5;;;16.8;;
17949;SDS011;9100;48.700;9.316;2023-02-11T01:50:35;22.8;;;16.5;;
17949;SDS011;9100;48.700;9.316;2023-02-11T01:51:15;22.8;;;16.5;;
17949;SDS011;9100;48.700;9.316;2023-02-11T01:52:15;22.8;;;16.5;;
17949;SDS011;9100;48.700;9.316;2023-02-11T01:53:13;22.8;;;16.5;;
17949;SDS011;9100;48.700;9.316;2023-02-11T01:54:14;22.8;;;16.5;;
17949;SDS011;9100;48.700;9.316;2023-02-11T01:55:14;22.8;;;16.5;;
17949;SDS011;9100;48.700;9.316;2023-02-11T01:55:35;27.6;;;16.4;;
17949;SDS011;9100;48.700;9.316;2023-02-11T01:56:14;27.6;;;16.4;;
17949;SDS011;9100;48.700;9.316;2023-02-11T01:57:15;27.6;;;16.4;;
17949;SDS011;9100;48.700;9.316;2023-02-11T01:58:14;27.6;;;16.4;;
17949;SDS011;9100;48.700;9.316;2023-02-11T01:59:16;27.6;;;16.4;;
17949;SDS011;9100;48.700;9.316;2023-02-11T02:00:14;27.6;;;16.4;;
17949;SDS011;9100;48.700;9.316;2023-02-11T02:00:36;28.3;;;18;;
17949;SDS011;9100;48.700;9.316;2023-02-11T02:01:15;28.3;;;18;;
17949;SDS011;9100;48.700;9.316;2023-02-11T02:02:14;28.3;;;18;;
17949;SDS011;9100;48.700;9.316;2023-02-11T02:03:14;28.3;;;18;;
17949;SDS011;9100;48.700;9.316;2023-02-11T02:04:13;28.3;;;18;;
17949;SDS011;9100;48.700;9.316;2023-02-11T02:05:20;28.3;;;18;;
17949;SDS011;9100;48.700;9.316;2023-02-11T02:05:36;23.7;;;17;;
17949;SDS011;9100;48.700;9.316;2023-02-11T02:06:14;23.7;;;17;;
17949;SDS011;9100;48.700;9.316;2023-02-11T02:07:16;23.7;;;17;;
17949;SDS011;9100;48.700;9.316;2023-02-11T02:08:15;23.7;;;17;;
17949;SDS011;9100;48.700;9.316;2023-02-11T02:09:15;23.7;;;17;;
17949;SDS011;9100;48.700;9.316;2023-02-11T02:10:14;23.7;;;17;;
17949;SDS011;9100;48.700;9.316;2023-02-11T02:10:36;23.4;;;16.2;;
17949;SDS011;9100;48.700;9.316;2023-02-11T02:11:13;23.4;;;16.2;;
17949;SDS011;9100;48.700;9.316;2023-02-11T02:12:14;23.4;;;16.2;;
17949;SDS011;9100;48.700;9.316;2023-02-11T02:13:13;23.4;;;16.2;;
17949;SDS011;9100;48.700;9.316;2023-02-11T02:14:13;23.4;;;16.2;;
17949;SDS011;9100;48.700;9.316;2023-02-11T02:15:17;23.4;;;16.2;;
17949;SDS011;9100;48.700;9.316;2023-02-11T02:15:36;25.5;;;17.1;;
17949;SDS011;9100;48.700;9.316;2023-02-11T02:16:15;25.5;;;17.1;;
17949;SDS011;9100;48.700;9.316;2023-02-11T02:17:16;25.5;;;17.1;;
17949;SDS011;9100;48.700;9.316;2023-02-11T02:18:17;25.5;;;17.1;;
17949;SDS011;9100;48.700;9.316;2023-02-11T02:19:21;25.5;;;17.1;;
17949;SDS011;9100;48.700;9.316;2023-02-11T02:20:20;25.5;;;17.1;;
17949;SDS011;9100;48.700;9.316;2023-02-11T02:21:39;21.1;;;15.2;;
17949;SDS011;9100;48.700;9.316;2023-02-11T02:22:21;21.1;;;15.2;;
17949;SDS011;9100;48.700;9.316;2023-02-11T02:23:16;21.1;;;15.2;;
17949;SDS011;9100;48.700;9.316;2023-02-11T02:24:20;21.1;;;15.2;;
17949;SDS011;9100;48.700;9.316;2023-02-11T02:25:22;21.1;;;15.2;;
17949;SDS011;9100;48.700;9.316;2023-02-11T02:25:55;23;;;15.8;;
17949;SDS011;9100;48.700;9.316;2023-02-11T02:26:18;23;;;15.8;;
17949;SDS011;9100;48.700;9.316;2023-02-11T02:27:19;23;;;15.8;;
17949;SDS011;9100;48.700;9.316;2023-02-11T02:28:20;23;;;15.8;;
17949;SDS011;9100;48.700;9.316;2023-02-11T02:29:18;23;;;15.8;;
17949;SDS011;9100;48.700;9.316;2023-02-11T02:30:15;23;;;15.8;;
17949;SDS011;9100;48.700;9.316;2023-02-11T02:30:39;24.8;;;15.6;;
17949;SDS011;9100;48.700;9.316;2023-02-11T02:31:22;24.8;;;15.6;;
17949;SDS011;9100;48.700;9.316;2023-02-11T02:32:22;24.8;;;15.6;;
17949;SDS011;9100;48.700;9.316;2023-02-11T02:33:19;24.8;;;15.6;;
17949;SDS011;9100;48.700;9.316;2023-02-11T02:34:14;24.8;;;15.6;;
17949;SDS011;9100;48.700;9.316;2023-02-11T02:35:14;24.8;;;15.6;;
17949;SDS011;9100;48.700;9.316;2023-02-11T02:35:36;24.3;;;15.1;;
17949;SDS011;9100;48.700;9.316;2023-02-11T02:36:14;24.3;;;15.1;;
17949;SDS011;9100;48.700;9.316;2023-02-11T02:37:14;24.3;;;15.1;;
17949;SDS011;9100;48.700;9.316;2023-02-11T02:38:15;24.3;;;15.1;;
17949;SDS011;9100;48.700;9.316;2023-02-11T02:39:14;24.3;;;15.1;;
17949;SDS011;9100;48.700;9.316;2023-02-11T02:40:14;24.3;;;15.1;;
17949;SDS011;9100;48.700;9.316;2023-02-11T02:40:37;21.9;;;16.2;;
17949;SDS011;9100;48.700;9.316;2023-02-11T02:41:14;21.9;;;16.2;;
17949;SDS011;9100;48.700;9.316;2023-02-11T02:42:13;21.9;;;16.2;;
17949;SDS011;9100;48.700;9.316;2023-02-11T02:43:15;21.9;;;16.2;;
17949;SDS011;9100;48.700;9.316;2023-02-11T02:44:13;21.9;;;16.2;;
17949;SDS011;9100;48.700;9.316;2023-02-11T02:45:13;21.9;;;16.2;;
17949;SDS011;9100;48.700;9.316;2023-02-11T02:45:36;19.1;;;15.5;;
17949;SDS011;9100;48.700;9.316;2023-02-11T02:46:14;19.1;;;15.5;;
17949;SDS011;9100;48.700;9.316;2023-02-11T02:47:13;19.1;;;15.5;;
17949;SDS011;9100;48.700;9.316;2023-02-11T02:48:30;19.1;;;15.5;;
17949;SDS011;9100;48.700;9.316;2023-02-11T02:49:14;19.1;;;15.5;;
17949;SDS011;9100;48.700;9.316;2023-02-11T02:50:14;19.1;;;15.5;;
17949;SDS011;9100;48.700;9.316;2023-02-11T02:50:35;21.7;;;14.9;;
17949;SDS011;9100;48.700;9.316;2023-02-11T02:51:18;21.7;;;14.9;;
17949;SDS011;9100;48.700;9.316;2023-02-11T02:52:15;21.7;;;14.9;;
17949;SDS011;9100;48.700;9.316;2023-02-11T02:53:17;21.7;;;14.9;;
17949;SDS011;9100;48.700;9.316;2023-02-11T02:54:21;21.7;;;14.9;;
17949;SDS011;9100;48.700;9.316;2023-02-11T02:55:17;21.7;;;14.9;;
17949;SDS011;9100;48.700;9.316;2023-02-11T02:55:40;24.2;;;14.8;;
17949;SDS011;9100;48.700;9.316;2023-02-11T02:56:15;24.2;;;14.8;;
17949;SDS011;9100;48.700;9.316;2023-02-11T02:57:18;24.2;;;14.8;;
17949;SDS011;9100;48.700;9.316;2023-02-11T02:58:26;24.2;;;14.8;;
17949;SDS011;9100;48.700;9.316;2023-02-11T02:59:18;24.2;;;14.8;;
17949;SDS011;9100;48.700;9.316;2023-02-11T03:00:15;24.2;;;14.8;;
17949;SDS011;9100;48.700;9.316;2023-02-11T03:00:36;24.1;;;14.6;;
17949;SDS011;9100;48.700;9.316;2023-02-11T03:01:17;24.1;;;14.6;;
17949;SDS011;9100;48.700;9.316;2023-02-11T03:02:17;24.1;;;14.6;;
17949;SDS011;9100;48.700;9.316;2023-02-11T03:03:16;24.1;;;14.6;;
17949;SDS011;9100;48.700;9.316;2023-02-11T03:04:16;24.1;;;14.6;;
17949;SDS011;9100;48.700;9.316;2023-02-11T03:05:15;24.1;;;14.6;;
17949;SDS011;9100;48.700;9.316;2023-02-11T03:05:38;21.3;;;15.3;;
17949;SDS011;9100;48.700;9.316;2023-02-11T03:06:16;21.3;;;15.3;;
17949;SDS011;9100;48.700;9.316;2023-02-11T03:07:16;21.3;;;15.3;;
17949;SDS011;9100;48.700;9.316;2023-02-11T03:08:14;21.3;;;15.3;;
17949;SDS011;9100;48.700;9.316;2023-02-11T03:09:14;21.3;;;15.3;;
17949;SDS011;9100;48.700;9.316;2023-02-11T03:10:15;21.3;;;15.3;;
17949;SDS011;9100;48.700;9.316;2023-02-11T03:10:35;28;;;14.9;;
17949;SDS011;9100;48.700;9.316;2023-02-11T03:11:14;28;;;14.9;;
17949;SDS011;9100;48.700;9.316;2023-02-11T03:12:13;28;;;14.9;;
17949;SDS011;9100;48.700;9.316;2023-02-11T03:13:13;28;;;14.9;;
17949;SDS011;9100;48.700;9.316;2023-02-11T03:14:14;28;;;14.9;;
17949;SDS011;9100;48.700;9.316;2023-02-11T03:15:13;28;;;14.9;;
17949;SDS011;9100;48.700;9.316;2023-02-11T03:15:36;20.5;;;14.4;;
17949;SDS011;9100;48.700;9.316;2023-02-11T03:16:13;20.5;;;14.4;;
17949;SDS011;9100;48.700;9.316;2023-02-11T03:17:13;20.5;;;14.4;;
17949;SDS011;9100;48.700;9.316;2023-02-11T03:18:14;20.5;;;14.4;;
17949;SDS011;9100;48.700;9.316;2023-02-11T03:19:14;20.5;;;14.4;;
17949;SDS011;9100;48.700;9.316;2023-02-11T03:20:14;20.5;;;14.4;;
17949;SDS011;9100;48.700;9.316;2023-02-11T03:20:35;21.6;;;15.6;;
17949;SDS011;9100;48.700;9.316;2023-02-11T03:21:13;21.6;;;15.6;;
17949;SDS011;9100;48.700;9.316;2023-02-11T03:22:15;21.6;;;15.6;;
17949;SDS011;9100;48.700;9.316;2023-02-11T03:23:14;21.6;;;15.6;;
17949;SDS011;9100;48.700;9.316;2023-02-11T03:24:14;21.6;;;15.6;;
17949;SDS011;9100;48.700;9.316;2023-02-11T03:25:13;21.6;;;15.6;;
17949;SDS011;9100;48.700;9.316;2023-02-11T03:25:36;19.7;;;12.6;;
17949;SDS011;9100;48.700;9.316;2023-02-11T03:26:15;19.7;;;12.6;;
17949;SDS011;9100;48.700;9.316;2023-02-11T03:27:14;19.7;;;12.6;;
17949;SDS011;9100;48.700;9.316;2023-02-11T03:28:15;19.7;;;12.6;;
17949;SDS011;9100;48.700;9.316;2023-02-11T03:29:14;19.7;;;12.6;;
17949;SDS011;9100;48.700;9.316;2023-02-11T03:30:15;19.7;;;12.6;;
17949;SDS011;9100;48.700;9.316;2023-02-11T03:30:37;16.3;;;11.9;;
17949;SDS011;9100;48.700;9.316;2023-02-11T03:31:16;16.3;;;11.9;;
17949;SDS011;9100;48.700;9.316;2023-02-11T03:32:16;16.3;;;11.9;;
17949;SDS011;9100;48.700;9.316;2023-02-11T03:33:17;16.3;;;11.9;;
17949;SDS011;9100;48.700;9.316;2023-02-11T03:34:13;16.3;;;11.9;;
17949;SDS011;9100;48.700;9.316;2023-02-11T03:35:14;16.3;;;11.9;;
17949;SDS011;9100;48.700;9.316;2023-02-11T03:35:35;20.9;;;13.5;;
17949;SDS011;9100;48.700;9.316;2023-02-11T03:36:14;20.9;;;13.5;;
17949;SDS011;9100;48.700;9.316;2023-02-11T03:37:15;20.9;;;13.5;;
17949;SDS011;9100;48.700;9.316;2023-02-11T03:38:15;20.9;;;13.5;;
17949;SDS011;9100;48.700;9.316;2023-02-11T03:39:15;20.9;;;13.5;;
17949;SDS011;9100;48.700;9.316;2023-02-11T03:40:14;20.9;;;13.5;;
17949;SDS011;9100;48.700;9.316;2023-02-11T03:40:35;15.9;;;11.3;;
17949;SDS011;9100;48.700;9.316;2023-02-11T03:41:14;15.9;;;11.3;;
17949;SDS011;9100;48.700;9.316;2023-02-11T03:42:14;15.9;;;11.3;;
17949;SDS011;9100;48.700;9.316;2023-02-11T03:43:15;15.9;;;11.3;;
17949;SDS011;9100;48.700;9.316;2023-02-11T03:44:14;15.9;;;11.3;;
17949;SDS011;9100;48.700;9.316;2023-02-11T03:45:14;15.9;;;11.3;;
17949;SDS011;9100;48.700;9.316;2023-02-11T03:45:36;17.5;;;13.7;;
17949;SDS011;9100;48.700;9.316;2023-02-11T03:46:13;17.5;;;13.7;;
17949;SDS011;9100;48.700;9.316;2023-02-11T03:47:14;17.5;;;13.7;;
17949;SDS011;9100;48.700;9.316;2023-02-11T03:48:15;17.5;;;13.7;;
17949;SDS011;9100;48.700;9.316;2023-02-11T03:49:14;17.5;;;13.7;;
17949;SDS011;9100;48.700;9.316;2023-02-11T03:50:15;17.5;;;13.7;;
17949;SDS011;9100;48.700;9.316;2023-02-11T03:50:36;19.1;;;14.9;;
17949;SDS011;9100;48.700;9.316;2023-02-11T03:51:15;19.1;;;14.9;;
17949;SDS011;9100;48.700;9.316;2023-02-11T03:52:15;19.1;;;14.9;;
17949;SDS011;9100;48.700;9.316;2023-02-11T03:53:13;19.1;;;14.9;;
17949;SDS011;9100;48.700;9.316;2023-02-11T03:54:15;19.1;;;14.9;;
17949;SDS011;9100;48.700;9.316;2023-02-11T03:55:14;19.1;;;14.9;;
17949;SDS011;9100;48.700;9.316;2023-02-11T03:55:36;13.4;;;10.7;;
17949;SDS011;9100;48.700;9.316;2023-02-11T03:56:14;13.4;;;10.7;;
17949;SDS011;9100;48.700;9.316;2023-02-11T03:57:13;13.4;;;10.7;;
17949;SDS011;9100;48.700;9.316;2023-02-11T03:58:15;13.4;;;10.7;;
17949;SDS011;9100;48.700;9.316;2023-02-11T03:59:14;13.4;;;10.7;;
17949;SDS011;9100;48.700;9.316;2023-02-11T04:00:14;13.4;;;10.7;;
17949;SDS011;9100;48.700;9.316;2023-02-11T04:00:36;24.2;;;14.2;;
17949;SDS011;9100;48.700;9.316;2023-02-11T04:01:14;24.2;;;14.2;;
17949;SDS011;9100;48.700;9.316;2023-02-11T04:02:14;24.2;;;14.2;;
17949;SDS011;9100;48.700;9.316;2023-02-11T04:03:13;24.2;;;14.2;;
17949;SDS011;9100;48.700;9.316;2023-02-11T04:04:13;24.2;;;14.2;;
17949;SDS011;9100;48.700;9.316;2023-02-11T04:05:14;24.2;;;14.2;;
17949;SDS011;9100;48.700;9.316;2023-02-11T04:05:35;22.5;;;14.7;;
17949;SDS011;9100;48.700;9.316;2023-02-11T04:06:13;22.5;;;14.7;;
17949;SDS011;9100;48.700;9.316;2023-02-11T04:07:13;22.5;;;14.7;;
17949;SDS011;9100;48.700;9.316;2023-02-11T04:08:13;22.5;;;14.7;;
17949;SDS011;9100;48.700;9.316;2023-02-11T04:09:13;22.5;;;14.7;;
17949;SDS011;9100;48.700;9.316;2023-02-11T04:10:13;22.5;;;14.7;;
17949;SDS011;9100;48.700;9.316;2023-02-11T04:10:35;4;;;3.6;;
17949;SDS011;9100;48.700;9.316;2023-02-11T04:11:13;4;;;3.6;;
17949;SDS011;9100;48.700;9.316;2023-02-11T04:12:13;4;;;3.6;;
17949;SDS011;9100;48.700;9.316;2023-02-11T04:13:13;4;;;3.6;;
17949;SDS011;9100;48.700;9.316;2023-02-11T04:14:13;4;;;3.6;;
17949;SDS011;9100;48.700;9.316;2023-02-11T04:15:13;4;;;3.6;;
17949;SDS011;9100;48.700;9.316;2023-02-11T04:15:36;13.7;;;9;;
17949;SDS011;9100;48.700;9.316;2023-02-11T04:16:13;13.7;;;9;;
17949;SDS011;9100;48.700;9.316;2023-02-11T04:17:14;13.7;;;9;;
17949;SDS011;9100;48.700;9.316;2023-02-11T04:18:13;13.7;;;9;;
17949;SDS011;9100;48.700;9.316;2023-02-11T04:19:13;13.7;;;9;;
17949;SDS011;9100;48.700;9.316;2023-02-11T04:20:14;13.7;;;9;;
17949;SDS011;9100;48.700;9.316;2023-02-11T04:20:35;16.1;;;10.8;;
17949;SDS011;9100;48.700;9.316;2023-02-11T04:21:14;16.1;;;10.8;;
17949;SDS011;9100;48.700;9.316;2023-02-11T04:22:13;16.1;;;10.8;;
17949;SDS011;9100;48.700;9.316;2023-02-11T04:23:13;16.1;;;10.8;;
17949;SDS011;9100;48.700;9.316;2023-02-11T04:24:13;16.1;;;10.8;;
17949;SDS011;9100;48.700;9.316;2023-02-11T04:25:13;16.1;;;10.8;;
17949;SDS011;9100;48.700;9.316;2023-02-11T04:25:35;21.1;;;15;;
17949;SDS011;9100;48.700;9.316;2023-02-11T04:26:13;21.1;;;15;;
17949;SDS011;9100;48.700;9.316;2023-02-11T04:27:14;21.1;;;15;;
17949;SDS011;9100;48.700;9.316;2023-02-11T04:28:14;21.1;;;15;;
17949;SDS011;9100;48.700;9.316;2023-02-11T04:29:14;21.1;;;15;;
17949;SDS011;9100;48.700;9.316;2023-02-11T04:30:14;21.1;;;15;;
17949;SDS011;9100;48.700;9.316;2023-02-11T04:30:35;13.3;;;9.1;;
17949;SDS011;9100;48.700;9.316;2023-02-11T04:31:13;13.3;;;9.1;;
17949;SDS011;9100;48.700;9.316;2023-02-11T04:32:14;13.3;;;9.1;;
17949;SDS011;9100;48.700;9.316;2023-02-11T04:33:13;13.3;;;9.1;;
17949;SDS011;9100;48.700;9.316;2023-02-11T04:34:14;13.3;;;9.1;;
17949;SDS011;9100;48.700;9.316;2023-02-11T04:35:13;13.3;;;9.1;;
17949;SDS011;9100;48.700;9.316;2023-02-11T04:35:35;7.7;;;6.9;;
17949;SDS011;9100;48.700;9.316;2023-02-11T04:36:14;7.7;;;6.9;;
17949;SDS011;9100;48.700;9.316;2023-02-11T04:37:14;7.7;;;6.9;;
17949;SDS011;9100;48.700;9.316;2023-02-11T04:38:13;7.7;;;6.9;;
17949;SDS011;9100;48.700;9.316;2023-02-11T04:39:15;7.7;;;6.9;;
17949;SDS011;9100;48.700;9.316;2023-02-11T04:40:15;7.7;;;6.9;;
17949;SDS011;9100;48.700;9.316;2023-02-11T04:40:35;9.6;;;7.1;;
17949;SDS011;9100;48.700;9.316;2023-02-11T04:41:15;9.6;;;7.1;;
17949;SDS011;9100;48.700;9.316;2023-02-11T04:42:13;9.6;;;7.1;;
17949;SDS011;9100;48.700;9.316;2023-02-11T04:43:14;9.6;;;7.1;;
17949;SDS011;9100;48.700;9.316;2023-02-11T04:44:14;9.6;;;7.1;;
17949;SDS011;9100;48.700;9.316;2023-02-11T04:45:14;9.6;;;7.1;;
17949;SDS011;9100;48.700;9.316;2023-02-11T04:45:35;13.9;;;10.9;;
17949;SDS011;9100;48.700;9.316;2023-02-11T04:46:13;13.9;;;10.9;;
17949;SDS011;9100;48.700;9.316;2023-02-11T04:47:14;13.9;;;10.9;;
17949;SDS011;9100;48.700;9.316;2023-02-11T04:48:14;13.9;;;10.9;;
17949;SDS011;9100;48.700;9.316;2023-02-11T04:49:14;13.9;;;10.9;;
17949;SDS011;9100;48.700;9.316;2023-02-11T04:50:14;13.9;;;10.9;;
17949;SDS011;9100;48.700;9.316;2023-02-11T04:50:35;22.7;;;14.8;;
17949;SDS011;9100;48.700;9.316;2023-02-11T04:51:14;22.7;;;14.8;;
17949;SDS011;9100;48.700;9.316;2023-02-11T04:52:13;22.7;;;14.8;;
17949;SDS011;9100;48.700;9.316;2023-02-11T04:53:15;22.7;;;14.8;;
17949;SDS011;9100;48.700;9.316;2023-02-11T04:54:13;22.7;;;14.8;;
17949;SDS011;9100;48.700;9.316;2023-02-11T04:55:13;22.7;;;14.8;;
17949;SDS011;9100;48.700;9.316;2023-02-11T04:55:35;21.1;;;14.6;;
17949;SDS011;9100;48.700;9.316;2023-02-11T04:56:13;21.1;;;14.6;;
17949;SDS011;9100;48.700;9.316;2023-02-11T04:57:15;21.1;;;14.6;;
17949;SDS011;9100;48.700;9.316;2023-02-11T04:58:13;21.1;;;14.6;;
17949;SDS011;9100;48.700;9.316;2023-02-11T04:59:13;21.1;;;14.6;;
17949;SDS011;9100;48.700;9.316;2023-02-11T05:00:14;21.1;;;14.6;;
17949;SDS011;9100;48.700;9.316;2023-02-11T05:00:35;19.6;;;13.1;;
17949;SDS011;9100;48.700;9.316;2023-02-11T05:01:15;19.6;;;13.1;;
17949;SDS011;9100;48.700;9.316;2023-02-11T05:02:15;19.6;;;13.1;;
17949;SDS011;9100;48.700;9.316;2023-02-11T05:03:14;19.6;;;13.1;;
17949;SDS011;9100;48.700;9.316;2023-02-11T05:04:14;19.6;;;13.1;;
17949;SDS011;9100;48.700;9.316;2023-02-11T05:05:13;19.6;;;13.1;;
17949;SDS011;9100;48.700;9.316;2023-02-11T05:05:36;19.5;;;13.5;;
17949;SDS011;9100;48.700;9.316;2023-02-11T05:06:13;19.5;;;13.5;;
17949;SDS011;9100;48.700;9.316;2023-02-11T05:07:13;19.5;;;13.5;;
17949;SDS011;9100;48.700;9.316;2023-02-11T05:08:13;19.5;;;13.5;;
17949;SDS011;9100;48.700;9.316;2023-02-11T05:09:13;19.5;;;13.5;;